Time;durP1;ratioP1;P1;durP2;ratioP2;P2;SDS_P1;SDS_P2;PMS_P1;PMS_P2;Temp;Humidity;BMP_temperature;BMP_pressure;BME280_temperature;BME280_humidity;BME280_pressure;Samples;Min_cycle;Max_cycle;Signal;HPM_P1;HPM_P2
2022/05/31 00:03:05;;;;;;;3.65;2.00;;;;;;;15.56;54.50;99769.62;7685920;32;39578;-74
2022/05/31 00:07:21;;;;;;;1.67;1.58;;;;;;;15.40;55.11;99772.66;7684232;32;39861;-74
2022/05/31 00:11:37;;;;;;;5.15;1.90;;;;;;;15.52;54.40;99769.44;7685479;32;38585;-74
2022/05/31 00:15:54;;;;;;;3.28;1.95;;;;;;;15.53;53.77;99764.72;7685497;32;37029;-74
2022/05/31 00:20:12;;;;;;;2.65;2.00;;;;;;;15.21;54.82;99763.69;7685447;32;40146;-74
2022/05/31 00:24:28;;;;;;;3.78;2.00;;;;;;;15.18;55.97;99767.06;7685250;32;40820;-74
2022/05/31 00:28:44;;;;;;;2.70;2.00;;;;;;;15.12;56.28;99771.81;7685254;32;38020;-74
2022/05/31 00:33:01;;;;;;;3.08;2.20;;;;;;;15.04;56.12;99769.78;7685993;32;37865;-73
2022/05/31 00:37:18;;;;;;;2.00;1.80;;;;;;;14.89;56.83;99776.34;7684099;32;39353;-74
2022/05/31 00:41:34;;;;;;;3.47;1.90;;;;;;;14.81;56.67;99777.03;7685047;32;40846;-74
2022/05/31 00:46:02;;;;;;;3.03;1.87;;;;;;;14.84;56.56;99779.19;7685309;32;38477;-74
2022/05/31 00:50:51;;;;;;;2.03;1.83;;;;;;;14.76;56.20;99790.84;7685238;32;36774;-74
2022/05/31 00:55:14;;;;;;;2.85;2.03;;;;;;;14.49;56.92;99786.84;7685123;32;40050;-74
2022/05/31 00:59:58;;;;;;;3.77;2.03;;;;;;;14.57;56.71;99788.91;7685082;32;40868;-74
2022/05/31 01:04:14;;;;;;;2.12;1.77;;;;;;;14.70;55.99;99797.53;7700920;32;37790;-74
2022/05/31 01:08:31;;;;;;;4.10;2.10;;;;;;;14.52;56.54;99807.38;7711580;32;36969;-74
2022/05/31 01:12:49;;;;;;;2.17;1.80;;;;;;;14.46;57.81;99803.91;7711615;32;39352;-74
2022/05/31 01:17:12;;;;;;;1.92;1.80;;;;;;;14.35;57.74;99799.66;7711457;32;39782;-74
2022/05/31 01:21:28;;;;;;;3.50;1.98;;;;;;;14.31;57.06;99813.16;7711352;32;37792;-74
2022/05/31 01:26:11;;;;;;;3.83;2.12;;;;;;;14.31;57.46;99815.09;7711352;32;36971;-74
2022/05/31 01:30:32;;;;;;;5.57;1.90;;;;;;;14.33;57.48;99812.84;7711328;32;40016;-74
2022/05/31 01:35:01;;;;;;;3.83;1.90;;;;;;;14.31;57.78;99815.09;7691348;32;39641;-74
2022/05/31 01:39:42;;;;;;;2.70;1.87;;;;;;;14.13;57.74;99814.78;7683988;32;37842;-73
2022/05/31 01:44:02;;;;;;;2.80;1.65;;;;;;;14.15;57.92;99818.03;7685157;32;38021;-74
2022/05/31 01:48:18;;;;;;;4.78;1.87;;;;;;;14.09;57.90;99820.03;7683329;32;39381;-73
2022/05/31 01:52:35;;;;;;;4.45;1.83;;;;;;;14.16;59.21;99824.31;7684362;32;40159;-74
2022/05/31 01:56:55;;;;;;;2.67;2.10;;;;;;;14.02;58.03;99833.28;7683757;32;38102;-74
2022/05/31 02:01:11;;;;;;;2.97;1.98;;;;;;;14.14;58.09;99834.78;7684094;32;37010;-73
2022/05/31 02:05:27;;;;;;;3.22;2.10;;;;;;;14.12;57.56;99831.53;7684022;32;39305;-74
2022/05/31 02:09:46;;;;;;;3.20;1.95;;;;;;;14.01;57.66;99834.41;7684456;32;40755;-74
2022/05/31 02:14:05;;;;;;;2.40;2.08;;;;;;;13.89;58.06;99828.53;7683887;32;37733;-74
2022/05/31 02:18:24;;;;;;;4.62;2.47;;;;;;;14.14;57.25;99835.59;7683868;32;37016;-73
2022/05/31 02:22:40;;;;;;;4.18;2.30;;;;;;;14.03;57.87;99831.38;7683910;32;39194;-73
2022/05/31 02:26:56;;;;;;;3.70;2.30;;;;;;;14.15;57.37;99831.75;7691290;32;40868;-73
2022/05/31 02:31:12;;;;;;;2.90;2.05;;;;;;;14.22;56.86;99826.72;7687615;32;37729;-74
2022/05/31 02:35:29;;;;;;;2.10;1.90;;;;;;;14.21;56.94;99825.09;7683560;32;37730;-74
2022/05/31 02:39:46;;;;;;;2.10;1.90;;;;;;;14.19;57.56;99826.47;7683464;32;39244;-74
2022/05/31 02:44:03;;;;;;;3.40;2.12;;;;;;;13.79;58.20;99826.72;7683142;32;39927;-73
2022/05/31 02:48:20;;;;;;;3.05;2.10;;;;;;;13.55;59.41;99834.13;7683152;32;37947;-73
2022/05/31 02:52:36;;;;;;;6.47;2.17;;;;;;;13.85;58.98;99828.28;7686423;32;37403;-73
2022/05/31 02:56:52;;;;;;;3.62;2.17;;;;;;;13.68;59.30;99833.44;7692915;32;40119;-73
2022/05/31 03:01:24;;;;;;;5.93;2.20;;;;;;;13.59;59.23;99835.16;7712821;32;39985;-74
2022/05/31 03:05:40;;;;;;;3.12;2.37;;;;;;;13.57;60.63;99826.41;7712849;32;37910;-74
2022/05/31 03:09:56;;;;;;;2.85;2.00;;;;;;;13.69;59.50;99835.03;7713031;32;36987;-73
2022/05/31 03:14:20;;;;;;;4.55;2.05;;;;;;;13.48;59.43;99846.22;7712940;32;40042;-73
2022/05/31 03:18:40;;;;;;;2.58;1.90;;;;;;;13.64;58.48;99829.62;7711612;32;39963;-73
2022/05/31 03:23:01;;;;;;;1.83;1.70;;;;;;;13.64;58.15;99833.19;7712732;32;37948;-74
2022/05/31 03:27:17;;;;;;;3.08;1.75;;;;;;;13.65;57.95;99837.56;7709417;32;36977;-74
2022/05/31 03:31:35;;;;;;;2.22;1.98;;;;;;;13.60;57.88;99837.62;7712655;32;39277;-73
2022/05/31 03:35:51;;;;;;;1.73;1.62;;;;;;;13.53;57.98;99834.41;7712541;32;39824;-74
2022/05/31 03:40:07;;;;;;;4.57;2.00;;;;;;;13.68;57.11;99841.66;7712569;32;37702;-74
2022/05/31 03:44:27;;;;;;;3.33;2.33;;;;;;;13.44;58.83;99838.91;7711528;32;37684;-73
2022/05/31 03:48:43;;;;;;;2.20;2.00;;;;;;;13.70;58.07;99842.16;7711118;32;39201;-74
2022/05/31 03:52:59;;;;;;;3.00;2.05;;;;;;;13.46;59.15;99840.22;7711049;32;39660;-74
2022/05/31 03:57:20;;;;;;;2.20;2.00;;;;;;;13.68;59.32;99841.66;7699239;32;37848;-74
2022/05/31 04:01:36;;;;;;;6.40;2.25;;;;;;;13.66;58.75;99836.47;7682834;32;37094;-73
2022/05/31 04:05:53;;;;;;;4.75;2.42;;;;;;;13.55;59.37;99842.34;7684560;32;39417;-74
2022/05/31 04:10:10;;;;;;;3.05;2.05;;;;;;;13.63;60.12;99839.78;7684129;32;39829;-74
2022/05/31 04:14:26;;;;;;;6.07;2.33;;;;;;;13.70;59.88;99836.69;7683923;32;38743;-74
2022/05/31 04:18:42;;;;;;;2.87;2.17;;;;;;;13.82;59.30;99834.34;7683957;32;38103;-74
2022/05/31 04:27:33;;;;;;;3.83;2.17;;;;;;;13.96;58.80;99833.66;7683976;32;40847;-74
2022/05/31 04:31:49;;;;;;;3.28;1.83;;;;;;;14.15;58.44;99826.25;7683686;32;38652;-73
2022/05/31 04:36:08;;;;;;;7.25;2.37;;;;;;;14.06;58.92;99836.25;7683602;32;37776;-74
2022/05/31 04:40:25;;;;;;;5.57;2.47;;;;;;;14.28;58.50;99836.50;7683792;32;39255;-74
2022/05/31 04:44:42;;;;;;;5.20;2.00;;;;;;;14.25;58.51;99837.09;7680883;32;124641;-74
2022/05/31 04:48:59;;;;;;;2.45;1.95;;;;;;;14.47;58.10;99832.97;7684953;32;38731;-77
2022/05/31 04:53:15;;;;;;;3.83;2.00;;;;;;;14.72;57.71;99839.19;7685092;32;36992;-74
2022/05/31 04:57:31;;;;;;;2.78;2.20;;;;;;;14.91;57.26;99841.91;7686522;32;40233;-75
2022/05/31 05:01:47;;;;;;;10.40;2.60;;;;;;;15.00;57.04;99837.38;7685073;32;39970;-74
2022/05/31 05:06:05;;;;;;;18.23;2.92;;;;;;;15.08;56.91;99841.37;7684859;32;37834;-74
2022/05/31 05:10:21;;;;;;;8.68;2.05;;;;;;;15.29;56.84;99836.34;7683884;32;36047;-74
2022/05/31 05:14:37;;;;;;;6.00;1.95;;;;;;;15.44;56.74;99838.00;7684231;32;40004;-74
2022/05/31 05:18:54;;;;;;;2.90;1.98;;;;;;;15.66;56.89;99835.38;7684772;32;39990;-74
2022/05/31 05:23:11;;;;;;;11.90;1.95;;;;;;;16.01;56.48;99840.50;7684699;32;39026;-74
2022/05/31 05:27:27;;;;;;;10.02;2.08;;;;;;;16.22;55.73;99836.16;7685993;32;37794;-74
2022/05/31 05:31:43;;;;;;;5.10;2.20;;;;;;;15.98;56.79;99843.84;7684827;32;40326;-74
2022/05/31 05:35:59;;;;;;;5.15;2.33;;;;;;;16.23;55.79;99831.47;7684623;32;40067;-74
2022/05/31 05:40:15;;;;;;;3.60;2.20;;;;;;;16.66;54.31;99833.78;7684629;32;38678;-74
2022/05/31 05:44:31;;;;;;;5.37;2.05;;;;;;;16.85;53.12;99826.22;7685257;32;37244;-75
2022/05/31 05:48:47;;;;;;;3.72;1.90;;;;;;;16.94;53.70;99822.72;7684611;32;40015;-73
2022/05/31 05:53:06;;;;;;;3.58;1.92;;;;;;;17.27;51.73;99821.28;7684409;32;39992;-73
2022/05/31 05:57:22;;;;;;;4.68;1.80;;;;;;;16.99;51.55;99828.06;7698179;32;38641;-74
2022/05/31 06:01:44;;;;;;;4.50;1.90;;;;;;;17.71;52.01;99832.50;7711074;32;36986;-73
2022/05/31 06:06:21;;;;;;;3.83;2.03;;;;;;;17.64;51.36;99834.91;7710989;32;40610;-75
2022/05/31 06:10:45;;;;;;;3.62;2.08;;;;;;;17.49;50.67;99838.09;7711006;32;40827;-75
2022/05/31 06:15:18;;;;;;;5.05;1.98;;;;;;;17.88;50.29;99831.78;7710904;32;38521;-76
2022/05/31 06:19:35;;;;;;;2.28;1.80;;;;;;;18.22;49.95;99833.03;7709712;32;37089;-76
2022/05/31 06:23:53;;;;;;;1.83;1.40;;;;;;;18.22;48.38;99841.31;7706895;32;40049;-76
2022/05/31 06:28:09;;;;;;;2.42;1.52;;;;;;;18.19;48.99;99845.50;7706543;32;40873;-76
2022/05/31 06:32:25;;;;;;;1.23;1.20;;;;;;;17.79;49.91;99842.75;7693031;32;37880;-76
2022/05/31 06:36:44;;;;;;;4.15;1.50;;;;;;;18.06;48.45;99842.88;7683705;32;37795;-76
2022/05/31 06:41:00;;;;;;;2.55;1.40;;;;;;;17.93;49.35;99845.44;7683922;32;39342;-76
2022/05/31 06:45:16;;;;;;;2.55;1.33;;;;;;;18.09;48.52;99856.03;7707861;32;40059;-75
2022/05/31 06:49:34;;;;;;;4.30;1.60;;;;;;;18.24;47.41;99854.78;7692520;32;37887;-76
2022/05/31 06:58:25;;;;;;;1.87;1.52;;;;;;;19.18;47.48;99848.78;7683260;32;39993;-75
2022/05/31 07:02:41;;;;;;;3.62;1.65;;;;;;;18.73;47.75;99855.47;7698699;32;39806;-75
2022/05/31 07:06:57;;;;;;;4.70;1.55;;;;;;;18.96;47.63;99850.63;7709231;32;37914;-76
2022/05/31 07:11:13;;;;;;;4.93;1.50;;;;;;;19.13;46.87;99845.06;7696447;32;37608;-76
2022/05/31 07:15:31;;;;;;;1.60;1.30;;;;;;;19.60;46.76;99840.72;7693792;32;40233;-76
2022/05/31 07:20:08;;;;;;;2.05;1.50;;;;;;;19.38;46.65;99839.00;7689975;32;41107;-76
2022/05/31 07:24:25;;;;;;;4.47;1.80;;;;;;;19.82;45.02;99848.78;7708809;32;38530;-76
2022/05/31 07:28:41;;;;;;;3.78;1.77;;;;;;;20.22;43.52;99842.88;7708718;32;37490;-76
2022/05/31 07:32:57;;;;;;;3.70;1.48;;;;;;;20.69;43.03;99838.31;7696764;32;39416;-76
2022/05/31 07:37:33;;;;;;;5.00;1.40;;;;;;;20.50;40.89;99836.00;7685361;32;41313;-75
2022/05/31 07:41:50;;;;;;;2.67;1.30;;;;;;;20.75;40.99;99839.75;7697457;32;37921;-76
2022/05/31 07:46:10;;;;;;;2.67;1.20;;;;;;;21.07;40.39;99840.09;7712584;32;37870;-75
2022/05/31 07:50:26;;;;;;;3.50;1.17;;;;;;;21.62;39.16;99836.09;7712506;32;40075;-76
2022/05/31 07:54:42;;;;;;;2.25;1.20;;;;;;;21.99;38.10;99830.56;7712001;32;39884;-76
2022/05/31 07:58:58;;;;;;;2.05;1.37;;;;;;;22.01;38.88;99833.78;7712188;32;37813;-77
2022/05/31 08:03:14;;;;;;;1.45;1.10;;;;;;;22.45;39.53;99830.41;7691325;32;36749;-72
2022/05/31 08:07:30;;;;;;;5.80;1.73;;;;;;;22.61;36.85;99828.50;7685641;32;40075;-74
2022/05/31 08:11:46;;;;;;;1.42;1.02;;;;;;;23.25;36.45;99829.53;7685714;32;39809;-76
2022/05/31 08:16:04;;;;;;;2.80;1.25;;;;;;;23.18;34.20;99836.84;7686230;32;37599;-74
2022/05/31 08:20:20;;;;;;;2.87;1.30;;;;;;;23.16;35.72;99831.69;7685431;32;37238;-75
2022/05/31 08:24:37;;;;;;;2.12;1.27;;;;;;;23.29;33.03;99837.16;7685499;32;40085;-74
2022/05/31 08:28:59;;;;;;;10.40;1.30;;;;;;;23.28;33.92;99827.19;7685909;32;40095;-75
2022/05/31 08:33:15;;;;;;;2.50;1.30;;;;;;;23.13;34.53;99837.94;7685195;32;37980;-75
2022/05/31 08:37:31;;;;;;;2.83;1.55;;;;;;;23.02;34.92;99837.59;7695851;32;37310;-75
2022/05/31 08:41:50;;;;;;;5.50;1.40;;;;;;;23.24;35.74;99830.69;7711838;32;39416;-75
2022/05/31 08:46:12;;;;;;;1.42;1.00;;;;;;;23.89;34.22;99829.56;7710984;32;40905;-74
2022/05/31 09:00:07;;;;;;;2.40;1.35;;;;;;;22.60;34.18;99826.88;7701414;32;39432;-74
2022/05/31 09:04:43;;;;;;;1.37;1.20;;;;;;;22.74;36.18;99832.06;7685506;32;39472;-74
2022/05/31 09:09:15;;;;;;;1.30;1.05;;;;;;;22.93;35.07;99827.81;7686951;32;38537;-73
2022/05/31 09:13:40;;;;;;;3.10;1.30;;;;;;;22.89;34.14;99824.94;7683968;32;36951;-74
2022/05/31 09:18:18;;;;;;;2.33;1.25;;;;;;;22.97;34.12;99817.59;7685122;32;40189;-75
2022/05/31 09:22:35;;;;;;;2.17;1.10;;;;;;;23.30;34.79;99810.94;7688561;32;39842;-74
2022/05/31 09:27:05;;;;;;;2.45;1.30;;;;;;;23.68;33.78;99810.34;7709898;32;37591;-74
2022/05/31 09:31:39;;;;;;;2.22;1.27;;;;;;;23.37;33.64;99813.91;7705343;32;37224;-74
2022/05/31 09:36:16;;;;;;;3.20;1.30;;;;;;;23.01;34.46;99824.06;7704509;32;39017;-75
2022/05/31 09:40:43;;;;;;;2.92;1.10;;;;;;;23.43;33.55;99812.50;7702549;32;40701;-74
2022/05/31 09:45:11;;;;;;;3.20;1.10;;;;;;;23.48;32.86;99809.44;7708435;32;37626;-75
2022/05/31 09:49:42;;;;;;;2.85;1.50;;;;;;;24.06;32.48;99816.41;7710012;32;37051;-75
2022/05/31 09:58:39;;;;;;;2.58;1.10;;;;;;;23.71;32.04;99800.47;7684025;32;40622;-74
2022/05/31 10:03:18;;;;;;;2.97;1.10;;;;;;;23.88;31.96;99816.00;7693238;32;36519;-75
2022/05/31 10:07:37;;;;;;;8.68;1.45;;;;;;;24.23;32.39;99799.31;7699799;32;36929;-75
2022/05/31 10:12:14;;;;;;;2.50;1.25;;;;;;;24.20;31.16;99800.06;7702257;32;39513;-75
2022/05/31 10:16:35;;;;;;;4.12;1.40;;;;;;;23.89;31.59;99801.75;7704359;32;39892;-74
2022/05/31 10:20:54;;;;;;;3.05;1.15;;;;;;;23.90;31.74;99800.56;7710591;32;37975;-75
2022/05/31 10:25:34;;;;;;;3.85;1.30;;;;;;;24.07;32.69;99793.00;7700753;32;36983;-75
2022/05/31 10:30:09;;;;;;;1.95;1.30;;;;;;;24.31;32.20;99791.94;7691478;32;39377;-74
2022/05/31 10:34:42;;;;;;;4.40;1.52;;;;;;;24.22;31.69;99791.34;7693045;32;40171;-74
2022/05/31 10:39:11;;;;;;;2.35;1.12;;;;;;;24.39;31.98;99785.34;7709888;32;37529;-76
2022/05/31 10:43:46;;;;;;;2.50;1.50;;;;;;;24.16;31.10;99779.66;7709076;32;36845;-76
2022/05/31 10:48:02;;;;;;;1.75;1.15;;;;;;;24.43;31.94;99771.50;7709932;32;39347;-75
2022/05/31 10:52:37;;;;;;;2.17;1.15;;;;;;;24.78;32.01;99774.22;7708757;32;39867;-74
2022/05/31 10:57:14;;;;;;;2.97;1.40;;;;;;;25.00;32.06;99778.22;7708233;32;37651;-76
2022/05/31 11:01:51;;;;;;;5.35;1.60;;;;;;;23.93;31.48;99774.78;7705110;32;37790;-76
2022/05/31 11:06:16;;;;;;;2.70;1.58;;;;;;;24.39;31.08;99777.00;7712334;32;40426;-76
2022/05/31 11:15:13;;;;;;;5.30;1.90;;;;;;;24.24;31.68;99772.28;7712700;32;38969;-76
2022/05/31 11:19:48;;;;;;;5.28;1.52;;;;;;;24.27;32.34;99772.34;7712696;32;37213;-76
2022/05/31 11:24:17;;;;;;;4.53;1.95;;;;;;;24.04;32.97;99775.00;7712701;32;40102;-76
2022/05/31 11:29:11;;;;;;;4.65;2.10;;;;;;;24.03;32.66;99779.00;7711484;32;40748;-76
2022/05/31 11:33:28;;;;;;;7.57;1.98;;;;;;;24.89;31.20;99771.66;7711714;32;37854;-75
2022/05/31 11:37:50;;;;;;;5.47;1.77;;;;;;;25.07;30.13;99758.81;7713074;32;38004;-74
2022/05/31 11:42:30;;;;;;;3.83;2.05;;;;;;;25.02;31.38;99750.75;7712722;32;39213;-73
2022/05/31 11:47:04;;;;;;;5.47;2.20;;;;;;;25.55;28.79;99741.72;7712132;32;39732;-73
2022/05/31 11:51:32;;;;;;;6.10;2.20;;;;;;;25.35;29.39;99748.56;7711521;32;37888;-74
2022/05/31 11:56:16;;;;;;;3.95;1.77;;;;;;;25.32;29.50;99741.78;7712290;32;36993;-73
2022/05/31 12:00:43;;;;;;;3.90;1.87;;;;;;;25.36;29.75;99748.19;7712209;32;39271;-74
2022/05/31 12:04:59;;;;;;;2.85;1.70;;;;;;;25.36;30.34;99731.47;7711168;32;39881;-73
2022/05/31 12:09:31;;;;;;;6.57;2.10;;;;;;;26.57;29.51;99720.38;7711843;32;37888;-73
2022/05/31 12:13:48;;;;;;;7.37;2.05;;;;;;;26.74;27.87;99729.41;7711005;32;37601;-73
2022/05/31 12:18:04;;;;;;;8.50;1.70;;;;;;;27.15;27.52;99727.41;7710319;32;39403;-75
2022/05/31 12:22:33;;;;;;;7.32;1.90;;;;;;;27.41;26.66;99716.47;7708491;32;39458;-73
2022/05/31 12:27:12;;;;;;;3.17;1.80;;;;;;;27.78;26.34;99707.91;7710269;32;38918;-73
2022/05/31 12:31:29;;;;;;;3.15;2.10;;;;;;;28.40;24.94;99707.03;7711259;32;37116;-73
2022/05/31 12:35:49;;;;;;;4.07;1.70;;;;;;;27.49;26.49;99695.72;7711472;32;39489;-73
2022/05/31 12:40:24;;;;;;;7.95;2.10;;;;;;;27.77;26.49;99699.88;7711333;32;39943;-74
2022/05/31 12:44:41;;;;;;;4.47;1.83;;;;;;;27.35;27.09;99688.84;7711819;32;37948;-73
2022/05/31 12:49:09;;;;;;;5.45;1.50;;;;;;;27.77;25.70;99694.28;7710352;32;37898;-73
2022/05/31 12:53:40;;;;;;;3.65;1.80;;;;;;;28.34;26.43;99683.41;7710333;32;39281;-74
2022/05/31 13:02:41;;;;;;;3.58;1.62;;;;;;;28.18;25.26;99671.72;7710937;32;37763;-74
2022/05/31 13:07:13;;;;;;;4.95;1.75;;;;;;;28.68;25.88;99666.25;7710514;32;37316;-74
2022/05/31 13:20:56;;;;;;;3.95;1.60;;;;;;;27.47;25.75;99675.69;7710282;32;38480;-74
2022/05/31 13:25:30;;;;;;;6.68;1.85;;;;;;;27.76;26.22;99664.69;7709972;32;36836;-74
2022/05/31 13:29:58;;;;;;;8.23;2.00;;;;;;;27.44;26.21;99662.47;7710183;32;39343;-74
2022/05/31 13:34:32;;;;;;;9.63;1.62;;;;;;;28.37;25.79;99659.34;7709891;32;40818;-74
2022/05/31 13:38:49;;;;;;;6.20;1.95;;;;;;;29.03;24.97;99645.06;7711300;32;38653;-73
2022/05/31 13:43:39;;;;;;;2.47;1.48;;;;;;;29.00;24.58;99637.44;7708926;32;36999;-73
2022/05/31 13:47:58;;;;;;;3.42;1.62;;;;;;;28.65;24.92;99642.63;7700816;32;39191;-73
2022/05/31 13:52:24;;;;;;;3.37;1.52;;;;;;;27.89;25.59;99633.16;7710583;32;40756;-73
2022/05/31 13:56:43;;;;;;;3.28;1.92;;;;;;;27.85;26.80;99648.31;7710815;32;38682;-74
2022/05/31 14:01:03;;;;;;;3.58;1.50;;;;;;;27.67;26.16;99639.84;7709759;32;37187;-73
2022/05/31 14:05:20;;;;;;;3.92;1.77;;;;;;;27.08;26.96;99625.81;7710243;32;40120;-73
2022/05/31 14:09:38;;;;;;;4.30;1.85;;;;;;;27.30;26.20;99629.59;7710201;32;39878;-73
2022/05/31 14:14:00;;;;;;;4.62;1.80;;;;;;;27.39;26.46;99627.28;7710249;32;38000;-74
2022/05/31 14:18:17;;;;;;;2.50;1.52;;;;;;;27.95;25.40;99622.38;7710515;32;37115;-74
2022/05/31 14:22:35;;;;;;;9.25;2.08;;;;;;;28.12;25.49;99631.28;7709134;32;39917;-73
2022/05/31 14:26:53;;;;;;;4.00;1.70;;;;;;;27.49;25.83;99626.53;7708915;32;38919;-73
2022/05/31 14:31:09;;;;;;;4.50;1.80;;;;;;;27.73;25.31;99616.69;7710070;32;36884;-81
2022/05/31 14:35:34;;;;;;;5.80;2.47;;;;;;;27.88;26.20;99613.94;7709578;32;38094;-75
2022/05/31 14:39:52;;;;;;;4.82;1.85;;;;;;;28.52;25.46;99620.97;7709693;32;39149;-77
2022/05/31 14:44:46;;;;;;;4.55;1.50;;;;;;;27.86;25.57;99610.72;7709085;32;40598;-77
2022/05/31 14:49:22;;;;;;;3.42;1.48;;;;;;;27.89;25.25;99602.34;7710909;32;39316;-81
2022/05/31 14:53:41;;;;;;;4.53;1.80;;;;;;;28.73;25.45;99592.94;7711034;32;37604;-81
2022/05/31 15:02:35;;;;;;;4.32;1.70;;;;;;;28.63;24.44;99594.56;7711420;32;40786;-82
2022/05/31 15:07:17;;;;;;;5.53;1.70;;;;;;;28.52;25.81;99592.91;7711285;32;38678;-78
2022/05/31 15:21:35;;;;;;;3.42;1.58;;;;;;;28.37;25.48;99576.09;7712391;32;40818;-82
2022/05/31 15:25:58;;;;;;;7.35;1.90;;;;;;;27.94;24.59;99587.19;7711879;32;38862;-80
2022/05/31 15:30:16;;;;;;;2.25;1.80;;;;;;;28.48;24.77;99568.47;7712304;32;37727;-78
2022/05/31 15:34:52;;;;;;;2.83;1.60;;;;;;;28.06;24.92;99572.81;7712203;32;39600;-77
2022/05/31 15:39:11;;;;;;;3.90;1.55;;;;;;;28.82;24.97;99564.50;7711791;32;39513;-78
2022/05/31 15:48:03;;;;;;;6.68;1.95;;;;;;;28.54;24.44;99571.69;7711531;32;37607;-77
2022/05/31 15:52:30;;;;;;;3.53;1.83;;;;;;;29.03;24.25;99563.69;7711098;32;38855;-77
2022/05/31 15:56:47;;;;;;;5.40;2.50;;;;;;;28.67;24.86;99563.72;7710328;32;40961;-77
2022/05/31 16:01:03;;;;;;;6.60;2.15;;;;;;;28.45;24.19;99566.47;7711599;32;38717;-77
2022/05/31 16:05:20;;;;;;;3.62;1.65;;;;;;;28.89;23.53;99555.28;7712330;32;37321;-78
2022/05/31 16:09:37;;;;;;;4.75;1.50;;;;;;;28.60;23.87;99560.91;7710303;32;39286;-78
2022/05/31 16:13:54;;;;;;;2.35;1.30;;;;;;;29.01;22.94;99554.88;7712348;32;39970;-78
2022/05/31 16:18:10;;;;;;;4.32;1.45;;;;;;;29.12;22.82;99552.84;7710428;32;39254;-78
2022/05/31 16:22:27;;;;;;;4.28;1.60;;;;;;;28.40;23.86;99552.84;7719897;32;36709;-78
2022/05/31 16:26:43;;;;;;;2.37;1.30;;;;;;;27.90;24.44;99552.72;7738788;32;39083;-76
2022/05/31 16:30:58;;;;;;;5.65;1.52;;;;;;;27.91;24.72;99554.31;7738245;32;40540;-78
2022/05/31 16:35:15;;;;;;;3.40;1.60;;;;;;;27.38;25.49;99563.28;7737569;32;38542;-77
2022/05/31 16:44:07;;;;;;;3.70;1.30;;;;;;;27.38;25.91;99561.28;7737757;32;39287;-77
2022/05/31 16:48:26;;;;;;;5.05;1.33;;;;;;;27.45;26.01;99554.94;7738033;32;40595;-77
2022/05/31 16:52:43;;;;;;;2.90;1.30;;;;;;;26.59;27.52;99550.28;7738216;32;37609;-77
2022/05/31 16:57:08;;;;;;;4.00;1.10;;;;;;;26.63;27.37;99560.72;7737456;32;37788;-77
2022/05/31 17:01:24;;;;;;;2.87;1.45;;;;;;;26.41;28.61;99571.69;7736622;32;40173;-77
2022/05/31 17:05:40;;;;;;;4.75;1.35;;;;;;;26.35;28.43;99568.44;7738410;32;40098;-76
2022/05/31 17:14:36;;;;;;;1.30;1.20;;;;;;;26.08;28.75;99564.97;7738106;32;37153;-77
2022/05/31 17:18:52;;;;;;;4.80;1.27;;;;;;;25.87;29.69;99559.91;7738134;32;40968;-78
2022/05/31 17:23:14;;;;;;;3.00;1.40;;;;;;;26.01;29.47;99570.50;7711155;32;40993;-77
2022/05/31 17:27:30;;;;;;;3.28;1.30;;;;;;;26.24;28.65;99561.94;7711338;32;37950;-77
2022/05/31 17:31:46;;;;;;;3.08;1.30;;;;;;;25.88;29.64;99561.53;7710554;32;38135;-76
2022/05/31 17:36:05;;;;;;;5.50;1.30;;;;;;;25.62;30.07;99563.19;7711295;32;40140;-76
2022/05/31 17:40:21;;;;;;;5.82;1.48;;;;;;;25.75;30.10;99566.56;7710469;32;39919;-76
2022/05/31 17:44:37;;;;;;;1.15;1.05;;;;;;;25.45;30.80;99567.34;7710787;32;37917;-76
2022/05/31 17:48:54;;;;;;;4.12;1.48;;;;;;;25.30;31.43;99571.12;7710717;32;36991;-75
2022/05/31 17:53:13;;;;;;;1.27;1.10;;;;;;;25.08;31.65;99568.00;7710739;32;39476;-75
2022/05/31 17:57:31;;;;;;;2.35;1.30;;;;;;;24.59;33.13;99588.31;7710531;32;39668;-76
2022/05/31 18:01:47;;;;;;;1.02;0.95;;;;;;;24.61;33.19;99591.56;7710086;32;37732;-76
2022/05/31 18:06:07;;;;;;;3.40;1.35;;;;;;;24.43;34.02;99584.81;7708894;32;37896;-76
2022/05/31 18:10:24;;;;;;;2.37;1.33;;;;;;;24.18;34.43;99599.91;7709654;32;38220;-76
2022/05/31 18:14:42;;;;;;;3.85;1.55;;;;;;;24.40;34.02;99589.16;7710668;32;40082;-75
2022/05/31 18:18:59;;;;;;;2.72;1.20;;;;;;;24.34;34.55;99594.22;7710216;32;38678;-75
2022/05/31 18:23:18;;;;;;;3.45;1.40;;;;;;;23.98;35.75;99585.19;7709457;32;38596;-75
2022/05/31 18:27:36;;;;;;;1.50;1.30;;;;;;;24.11;35.67;99593.38;7710634;32;38424;-76
2022/05/31 18:31:54;;;;;;;3.90;1.50;;;;;;;23.98;35.20;99595.53;7696939;32;40890;-75
2022/05/31 18:36:23;;;;;;;1.45;1.20;;;;;;;23.56;35.52;99604.53;7710370;32;37717;-75
2022/05/31 18:40:42;;;;;;;1.45;1.15;;;;;;;23.74;35.04;99597.37;7710275;32;37837;-75
2022/05/31 18:45:01;;;;;;;3.97;1.60;;;;;;;23.70;35.14;99599.28;7709996;32;39335;-75
2022/05/31 18:49:17;;;;;;;1.98;1.40;;;;;;;23.57;34.99;99595.81;7710069;32;40018;-75
2022/05/31 18:53:33;;;;;;;3.67;1.75;;;;;;;23.39;35.66;99600.22;7709629;32;37798;-75
2022/05/31 18:57:52;;;;;;;3.22;1.55;;;;;;;23.37;35.82;99603.34;7709154;32;37214;-75
2022/05/31 19:02:16;;;;;;;1.80;1.45;;;;;;;23.24;36.07;99605.44;7707668;32;39968;-74
2022/05/31 19:06:33;;;;;;;2.45;1.60;;;;;;;23.15;36.34;99602.03;7709604;32;41243;-74
2022/05/31 19:10:51;;;;;;;2.60;1.45;;;;;;;23.08;36.70;99601.88;7709014;32;37730;-75
2022/05/31 19:15:13;;;;;;;2.60;1.48;;;;;;;23.04;36.92;99612.06;7708214;32;35528;-75
2022/05/31 19:19:30;;;;;;;4.60;1.65;;;;;;;22.99;37.13;99620.69;7705555;32;40119;-75
2022/05/31 19:23:46;;;;;;;1.85;1.50;;;;;;;22.60;38.44;99615.75;7698503;32;39992;-75
2022/05/31 19:28:02;;;;;;;3.10;1.70;;;;;;;22.68;38.58;99616.75;7708309;32;38826;-76
2022/05/31 19:32:20;;;;;;;2.20;1.80;;;;;;;22.30;39.92;99618.09;7709515;32;36894;-77
2022/05/31 19:36:40;;;;;;;2.93;2.23;;;;;;;22.33;40.09;99628.50;7712130;32;40012;-75
2022/05/31 19:40:57;;;;;;;6.62;2.30;;;;;;;22.21;40.65;99640.44;7710606;32;40019;-75
2022/05/31 19:45:13;;;;;;;5.12;1.90;;;;;;;22.02;41.59;99630.00;7710794;32;38536;-76
2022/05/31 19:49:29;;;;;;;1.87;1.62;;;;;;;22.11;41.37;99625.13;7711817;32;37763;-75
2022/05/31 19:53:50;;;;;;;2.92;1.90;;;;;;;21.80;42.60;99627.78;7710884;32;40112;-76
2022/05/31 19:58:06;;;;;;;4.55;1.75;;;;;;;22.13;41.77;99627.56;7712118;32;39927;-73
2022/05/31 20:02:23;;;;;;;8.38;2.00;;;;;;;22.05;41.96;99620.97;7711570;32;37917;-73
2022/05/31 20:06:39;;;;;;;6.62;2.17;;;;;;;22.08;41.95;99625.03;7711988;32;36634;-75
2022/05/31 20:10:57;;;;;;;3.75;1.77;;;;;;;21.40;43.76;99632.09;7711427;32;40015;-75
2022/05/31 20:15:50;;;;;;;5.37;2.00;;;;;;;21.35;44.39;99632.34;7711741;32;40728;-75
2022/05/31 20:20:06;;;;;;;3.28;2.00;;;;;;;21.55;43.82;99644.47;7709724;32;37576;-74
2022/05/31 20:24:24;;;;;;;2.35;1.80;;;;;;;21.55;43.97;99636.16;7711447;32;37534;-73
2022/05/31 20:28:41;;;;;;;3.90;2.30;;;;;;;21.30;44.83;99630.63;7711769;32;40076;-73
2022/05/31 20:32:56;;;;;;;4.68;1.85;;;;;;;21.34;45.04;99631.53;7709535;32;39595;-74
2022/05/31 20:37:13;;;;;;;4.82;1.92;;;;;;;21.45;44.83;99633.84;7711821;32;37609;-74
2022/05/31 20:41:33;;;;;;;4.50;2.20;;;;;;;21.28;44.73;99629.34;7710981;32;38420;-74
2022/05/31 20:45:49;;;;;;;3.30;1.80;;;;;;;21.28;44.56;99632.91;7710201;32;39071;-72
2022/05/31 20:50:05;;;;;;;2.22;1.85;;;;;;;21.00;45.89;99633.63;7711110;32;40693;-72
2022/05/31 20:54:26;;;;;;;3.20;2.03;;;;;;;20.97;45.95;99626.00;7710977;32;37907;-72
2022/05/31 20:58:42;;;;;;;4.45;2.30;;;;;;;20.98;46.22;99629.59;7710869;32;37173;-72
2022/05/31 21:02:58;;;;;;;3.67;2.05;;;;;;;20.86;46.71;99633.16;7711038;32;39426;-72
2022/05/31 21:07:18;;;;;;;8.30;2.60;;;;;;;20.71;46.62;99640.16;7711371;32;39694;-73
2022/05/31 21:11:36;;;;;;;7.22;2.15;;;;;;;20.73;46.53;99629.56;7697261;32;37833;-73
2022/05/31 21:15:57;;;;;;;3.78;2.28;;;;;;;20.44;47.43;99633.28;7710020;32;35967;-72
2022/05/31 21:20:13;;;;;;;3.42;2.28;;;;;;;20.40;47.62;99640.63;7710915;32;39130;-72
2022/05/31 21:24:30;;;;;;;4.45;2.30;;;;;;;20.24;48.01;99654.31;7707734;32;40125;-72
2022/05/31 21:28:46;;;;;;;3.62;2.42;;;;;;;20.12;48.48;99654.28;7710691;32;38116;-72
2022/05/31 21:33:04;;;;;;;4.87;2.83;;;;;;;20.17;48.44;99657.63;7710786;32;37120;-72
2022/05/31 21:37:25;;;;;;;5.05;2.50;;;;;;;19.93;49.17;99666.63;7710624;32;40053;-74
2022/05/31 21:41:41;;;;;;;4.15;2.45;;;;;;;19.99;49.19;99661.69;7709220;32;39723;-73